Time;durP1;ratioP1;P1;durP2;ratioP2;P2;SDS_P1;SDS_P2;PMS_P1;PMS_P2;Temp;Humidity;BMP_temperature;BMP_pressure;BME280_temperature;BME280_humidity;BME280_pressure;Samples;Min_cycle;Max_cycle;Signal;HPM_P1;HPM_P2
2023/03/08 00:00:59;;;;;;;2.93;1.50;;;-1.30;99.90;;;;;;5025000;28;20216;-96
2023/03/08 00:03:26;;;;;;;3.40;2.07;;;-1.40;99.90;;;;;;5021182;28;20239;-96
2023/03/08 00:05:54;;;;;;;4.10;1.50;;;-1.30;99.90;;;;;;5019072;28;20274;-95
2023/03/08 00:08:21;;;;;;;5.03;1.50;;;-1.30;99.90;;;;;;5024179;28;20222;-96
2023/03/08 00:10:48;;;;;;;5.27;1.40;;;-1.30;99.90;;;;;;5011534;28;20214;-96
2023/03/08 00:13:15;;;;;;;3.37;1.33;;;-1.20;99.90;;;;;;5027882;28;20280;-96
2023/03/08 00:15:41;;;;;;;5.83;1.53;;;-1.20;99.90;;;;;;5012068;28;20241;-96
2023/03/08 00:18:08;;;;;;;5.20;1.47;;;-1.20;99.90;;;;;;5010815;28;20210;-96
2023/03/08 00:20:35;;;;;;;4.63;1.80;;;-1.10;99.90;;;;;;5024926;28;20213;-96
2023/03/08 00:23:03;;;;;;;5.53;1.60;;;-1.00;99.90;;;;;;5010104;28;20218;-96
2023/03/08 00:25:30;;;;;;;5.17;1.53;;;-1.10;99.90;;;;;;5006366;28;20264;-95
2023/03/08 00:27:57;;;;;;;3.20;1.63;;;-1.10;99.90;;;;;;5012711;28;20202;-96
2023/03/08 00:30:24;;;;;;;2.77;1.20;;;-1.00;99.90;;;;;;5026749;28;20240;-96
2023/03/08 00:32:51;;;;;;;7.30;2.30;;;-1.10;99.90;;;;;;5027373;28;20424;-96
2023/03/08 00:35:19;;;;;;;1.47;1.17;;;-1.00;99.90;;;;;;5025555;28;20213;-96
2023/03/08 00:37:46;;;;;;;3.57;1.67;;;-1.00;99.90;;;;;;5011887;28;20289;-96
2023/03/08 00:40:18;;;;;;;3.10;1.47;;;-1.10;99.90;;;;;;5025833;28;20209;-96
2023/03/08 00:42:45;;;;;;;3.33;1.60;;;-1.10;99.90;;;;;;5012291;28;20238;-95
2023/03/08 00:45:12;;;;;;;4.73;1.43;;;-1.10;99.90;;;;;;5010124;28;20660;-96
2023/03/08 00:47:39;;;;;;;3.87;1.67;;;-1.10;99.90;;;;;;5028433;28;20288;-96
2023/03/08 00:50:07;;;;;;;4.97;1.40;;;-1.10;99.90;;;;;;5025455;28;20206;-96
2023/03/08 00:52:36;;;;;;;3.43;1.53;;;-1.20;99.90;;;;;;5027438;28;20232;-96
2023/03/08 00:55:03;;;;;;;2.03;1.40;;;-1.20;99.90;;;;;;5009561;28;20230;-96
2023/03/08 00:57:32;;;;;;;4.57;1.40;;;-1.20;99.90;;;;;;5010512;28;20213;-96
2023/03/08 00:59:59;;;;;;;6.80;1.90;;;-1.20;99.90;;;;;;5026117;28;20206;-96
2023/03/08 01:02:26;;;;;;;4.80;1.60;;;-1.30;99.90;;;;;;5023479;28;20217;-96
2023/03/08 01:04:52;;;;;;;2.43;1.70;;;-1.30;99.90;;;;;;5022088;28;20205;-96
2023/03/08 01:07:22;;;;;;;3.60;1.70;;;-1.30;99.90;;;;;;5010511;28;20205;-96
2023/03/08 01:09:49;;;;;;;2.63;1.53;;;-1.30;99.90;;;;;;5024353;28;20213;-96
2023/03/08 01:12:20;;;;;;;4.47;1.53;;;-1.40;99.90;;;;;;5008756;28;20276;-95
2023/03/08 01:14:48;;;;;;;2.67;1.60;;;-1.40;99.90;;;;;;5007828;28;20213;-96
2023/03/08 01:17:15;;;;;;;2.90;1.67;;;-1.30;99.90;;;;;;5006557;28;20456;-96
2023/03/08 01:19:42;;;;;;;2.40;1.53;;;-1.40;99.90;;;;;;5007157;28;20286;-96
2023/03/08 01:22:09;;;;;;;2.80;1.60;;;-1.40;99.90;;;;;;5021788;28;20252;-96
2023/03/08 01:24:36;;;;;;;4.10;2.03;;;-1.40;99.90;;;;;;5022513;28;20221;-96
2023/03/08 01:27:03;;;;;;;5.07;2.37;;;-1.40;99.90;;;;;;5005790;28;20605;-96
2023/03/08 01:29:30;;;;;;;2.90;1.50;;;-1.40;99.90;;;;;;5006277;28;20245;-96
2023/03/08 01:31:59;;;;;;;3.10;1.50;;;-1.40;99.90;;;;;;5022597;28;20225;-95
2023/03/08 01:34:26;;;;;;;2.67;1.77;;;-1.50;99.90;;;;;;5020564;28;20225;-96
2023/03/08 01:36:54;;;;;;;3.20;1.77;;;-1.50;99.90;;;;;;5024206;28;20210;-94
2023/03/08 01:39:21;;;;;;;3.80;1.83;;;-1.60;99.90;;;;;;5020599;28;20201;-96
2023/03/08 01:41:49;;;;;;;5.47;1.77;;;-1.50;99.90;;;;;;5022464;28;20248;-96
2023/03/08 01:44:18;;;;;;;4.70;1.70;;;-1.60;99.90;;;;;;5022329;28;20240;-96
2023/03/08 01:46:45;;;;;;;3.33;1.83;;;-1.70;99.90;;;;;;5008630;28;20214;-96
2023/03/08 01:49:25;;;;;;;4.43;1.80;;;-1.80;99.90;;;;;;5007243;28;20252;-96
2023/03/08 01:51:56;;;;;;;4.13;1.90;;;-1.80;99.90;;;;;;5021033;28;20221;-96
2023/03/08 01:54:28;;;;;;;4.27;2.37;;;-1.70;99.90;;;;;;5016549;28;20230;-94
2023/03/08 01:56:59;;;;;;;6.17;2.13;;;-1.80;99.90;;;;;;5022582;28;20214;-95
2023/03/08 01:59:27;;;;;;;5.70;2.20;;;-1.80;99.90;;;;;;5019725;28;20233;-96
2023/03/08 02:01:54;;;;;;;4.67;2.03;;;-1.90;99.90;;;;;;5022464;28;20241;-95
2023/03/08 02:04:24;;;;;;;5.73;2.40;;;-2.00;99.90;;;;;;5022424;28;20224;-96
2023/03/08 02:06:50;;;;;;;2.63;2.23;;;-2.00;99.90;;;;;;5021723;28;20237;-96
2023/03/08 02:09:21;;;;;;;7.93;2.33;;;-2.00;99.90;;;;;;5006031;28;20220;-96
2023/03/08 02:11:49;;;;;;;3.93;2.10;;;-2.10;99.90;;;;;;5022319;28;20265;-96
2023/03/08 02:14:16;;;;;;;7.30;2.17;;;-2.10;99.90;;;;;;5019217;28;20240;-96
2023/03/08 02:16:46;;;;;;;6.53;2.30;;;-2.10;99.90;;;;;;5018768;28;20238;-96
2023/03/08 02:19:22;;;;;;;4.50;2.30;;;-2.20;99.90;;;;;;5007105;28;20243;-96
2023/03/08 02:21:50;;;;;;;3.87;2.40;;;-2.20;99.90;;;;;;5021013;28;20217;-95
2023/03/08 02:24:21;;;;;;;3.13;2.17;;;-2.20;99.90;;;;;;5022770;23;20736;-76
2023/03/08 02:26:51;;;;;;;4.40;2.13;;;-2.30;99.90;;;;;;4962577;28;20241;-76
2023/03/08 02:29:17;;;;;;;2.13;1.93;;;-2.30;99.90;;;;;;4960270;28;20221;-76
2023/03/08 02:31:44;;;;;;;5.73;2.50;;;-2.30;99.90;;;;;;4960741;28;20241;-77
2023/03/08 02:34:11;;;;;;;5.30;2.40;;;-2.40;99.90;;;;;;4975487;28;20324;-77
2023/03/08 02:36:37;;;;;;;4.93;2.50;;;-2.40;99.90;;;;;;4962758;28;20242;-76
2023/03/08 02:39:04;;;;;;;4.20;2.50;;;-2.40;99.90;;;;;;4963881;28;20267;-76
2023/03/08 02:41:32;;;;;;;6.00;2.80;;;-2.50;99.90;;;;;;4977327;28;20237;-77
2023/03/08 02:43:59;;;;;;;3.93;2.63;;;-2.50;99.90;;;;;;4977333;28;20228;-75
2023/03/08 02:46:25;;;;;;;5.47;2.80;;;-2.50;99.90;;;;;;4974101;28;20237;-75
2023/03/08 02:48:52;;;;;;;3.90;2.83;;;-2.60;99.90;;;;;;4977003;28;20227;-77
2023/03/08 02:51:20;;;;;;;6.57;3.30;;;-2.60;99.90;;;;;;4960783;28;20303;-77
2023/03/08 02:53:47;;;;;;;6.53;3.53;;;-2.60;99.90;;;;;;4979190;28;20609;-77
2023/03/08 02:56:14;;;;;;;5.63;3.67;;;-2.60;99.90;;;;;;4976630;28;20329;-76
2023/03/08 02:58:42;;;;;;;7.07;3.03;;;-2.50;99.90;;;;;;4961089;28;20222;-77
2023/03/08 03:01:12;;;;;;;11.90;4.20;;;-2.40;99.90;;;;;;4975468;28;20241;-77
2023/03/08 03:03:39;;;;;;;8.30;3.93;;;-2.30;99.90;;;;;;4975914;28;20301;-77
2023/03/08 03:06:12;;;;;;;6.33;3.90;;;-2.20;99.90;;;;;;4961377;28;20673;-77
2023/03/08 03:08:39;;;;;;;5.93;4.20;;;-2.10;99.90;;;;;;4960520;28;20327;-77
2023/03/08 03:11:11;;;;;;;7.40;5.77;;;-2.00;99.90;;;;;;4976106;28;21676;-76
2023/03/08 03:13:38;;;;;;;9.93;6.47;;;-1.80;99.90;;;;;;4978106;28;20257;-77
2023/03/08 03:16:08;;;;;;;8.17;7.27;;;-1.70;99.90;;;;;;4960136;28;20609;-77
2023/03/08 03:18:35;;;;;;;9.23;7.33;;;-1.60;99.90;;;;;;4976414;28;20334;-76
2023/03/08 03:21:03;;;;;;;9.77;7.77;;;-1.50;99.90;;;;;;4977889;28;20276;-77
2023/03/08 03:23:30;;;;;;;14.30;9.70;;;-1.40;99.90;;;;;;4961280;28;20225;-77
2023/03/08 03:25:57;;;;;;;11.17;8.87;;;-1.30;99.90;;;;;;4964819;28;20717;-77
2023/03/08 03:28:24;;;;;;;12.27;9.23;;;-1.20;99.90;;;;;;4963979;28;23038;-77
2023/03/08 03:30:51;;;;;;;12.57;9.37;;;-1.20;99.90;;;;;;4963877;28;20212;-78
2023/03/08 03:33:20;;;;;;;13.00;9.23;;;-1.10;99.90;;;;;;4977761;28;20225;-76
2023/03/08 03:35:47;;;;;;;11.07;9.00;;;-1.00;99.90;;;;;;4980111;28;20769;-77
2023/03/08 03:38:14;;;;;;;11.67;9.20;;;-0.90;99.90;;;;;;4981421;28;20286;-76
2023/03/08 03:40:44;;;;;;;12.37;9.03;;;-0.90;99.90;;;;;;4981589;28;20776;-77
2023/03/08 03:43:11;;;;;;;11.57;8.90;;;-0.80;99.90;;;;;;4981627;28;20232;-77
2023/03/08 03:45:38;;;;;;;9.03;8.13;;;-0.80;99.90;;;;;;4963286;28;20231;-78
2023/03/08 03:48:05;;;;;;;9.87;7.90;;;-0.70;99.90;;;;;;4959937;28;20224;-78
2023/03/08 03:50:34;;;;;;;9.73;8.70;;;-0.70;99.90;;;;;;4965535;28;20246;-77
2023/03/08 03:53:06;;;;;;;10.93;7.83;;;-0.60;99.90;;;;;;4977424;28;20233;-77
2023/03/08 03:55:33;;;;;;;10.03;8.27;;;-0.60;99.90;;;;;;4964215;28;20237;-77
2023/03/08 03:58:02;;;;;;;8.93;8.03;;;-0.60;99.90;;;;;;4977232;28;20222;-78
2023/03/08 04:00:30;;;;;;;9.17;7.77;;;-0.50;99.90;;;;;;4956706;28;20226;-77
2023/03/08 04:03:13;;;;;;;9.93;7.83;;;-0.50;99.90;;;;;;4973083;28;20230;-77
2023/03/08 04:05:41;;;;;;;12.67;8.17;;;-0.40;99.90;;;;;;4962300;28;20246;-76
2023/03/08 04:08:08;;;;;;;8.47;7.40;;;-0.40;99.90;;;;;;4975766;28;20324;-77
2023/03/08 04:10:37;;;;;;;9.37;7.53;;;-0.40;99.90;;;;;;4978833;28;21004;-76
2023/03/08 04:13:04;;;;;;;8.77;6.90;;;-0.40;99.90;;;;;;4979121;28;20221;-76
2023/03/08 04:15:31;;;;;;;8.70;7.80;;;-0.40;99.90;;;;;;4959694;28;20650;-77
2023/03/08 04:18:01;;;;;;;7.93;7.13;;;-0.40;99.90;;;;;;4975124;28;20233;-76
2023/03/08 04:20:30;;;;;;;7.93;7.00;;;-0.30;99.90;;;;;;4979231;28;20237;-76
2023/03/08 04:23:00;;;;;;;7.63;6.83;;;-0.30;99.90;;;;;;4959909;28;20344;-77
2023/03/08 04:25:36;;;;;;;10.00;6.90;;;-0.30;99.90;;;;;;4963777;28;20844;-78
2023/03/08 04:28:05;;;;;;;8.77;6.30;;;-0.30;99.90;;;;;;4961937;28;20833;-77
2023/03/08 04:30:32;;;;;;;7.50;6.30;;;-0.30;99.90;;;;;;4964155;28;20699;-77
2023/03/08 04:33:01;;;;;;;7.50;6.30;;;-0.30;99.90;;;;;;4958994;28;20251;-78
2023/03/08 04:35:35;;;;;;;7.00;6.30;;;-0.20;99.90;;;;;;4981398;28;20939;-77
2023/03/08 04:38:04;;;;;;;9.10;7.00;;;-0.20;99.90;;;;;;4981404;28;20279;-77
2023/03/08 04:40:31;;;;;;;7.10;6.40;;;-0.20;99.90;;;;;;4975475;28;20726;-77
2023/03/08 04:43:02;;;;;;;7.63;6.83;;;-0.20;99.90;;;;;;4977561;28;20317;-77
2023/03/08 04:45:35;;;;;;;7.70;6.90;;;-0.20;99.90;;;;;;4978614;28;20262;-77
2023/03/08 04:48:06;;;;;;;8.47;6.53;;;-0.10;99.90;;;;;;4961611;28;20317;-77
2023/03/08 04:50:33;;;;;;;8.63;7.03;;;-0.10;99.90;;;;;;4960434;28;20775;-76
2023/03/08 04:53:00;;;;;;;8.03;7.27;;;-0.10;99.90;;;;;;4962791;28;20723;-76
2023/03/08 04:55:29;;;;;;;6.60;6.00;;;-0.10;99.90;;;;;;4975519;28;20251;-76
2023/03/08 04:57:57;;;;;;;8.57;6.20;;;-0.10;99.90;;;;;;4978614;28;20226;-76
2023/03/08 05:00:26;;;;;;;5.63;5.10;;;-0.10;99.90;;;;;;4971764;28;20271;-76
2023/03/08 05:02:53;;;;;;;14.77;4.90;;;0.00;99.90;;;;;;4975766;28;20221;-77
2023/03/08 05:05:23;;;;;;;5.77;4.20;;;0.00;99.90;;;;;;4976627;28;20228;-77
2023/03/08 05:07:53;;;;;;;4.57;4.07;;;0.00;99.90;;;;;;4978063;28;20220;-77
2023/03/08 05:10:20;;;;;;;8.90;5.70;;;0.00;99.90;;;;;;4977758;28;20219;-76
2023/03/08 05:12:48;;;;;;;6.80;4.60;;;0.00;99.90;;;;;;4961893;28;20230;-76
2023/03/08 05:15:15;;;;;;;5.73;4.27;;;0.00;99.90;;;;;;4976217;28;20235;-77
2023/03/08 05:17:42;;;;;;;7.67;4.33;;;0.00;99.90;;;;;;4962754;28;20235;-77
2023/03/08 05:20:10;;;;;;;5.17;4.03;;;-0.10;99.90;;;;;;4962722;28;20319;-77
2023/03/08 05:22:39;;;;;;;4.80;3.87;;;-0.10;99.90;;;;;;4977634;28;20227;-83
2023/03/08 05:25:08;;;;;;;6.00;4.30;;;-0.10;99.90;;;;;;4965057;28;20226;-79
2023/03/08 05:27:35;;;;;;;9.00;5.60;;;-0.10;99.90;;;;;;4960972;28;20560;-80
2023/03/08 05:30:04;;;;;;;15.00;7.03;;;-0.10;99.90;;;;;;4963897;28;20243;-80
2023/03/08 05:32:32;;;;;;;9.53;5.03;;;-0.10;99.90;;;;;;4966290;28;20227;-80
2023/03/08 05:34:58;;;;;;;6.20;5.03;;;-0.10;99.90;;;;;;4984473;28;20230;-80
2023/03/08 05:37:32;;;;;;;6.43;4.83;;;-0.10;99.90;;;;;;4971982;28;20285;-80
2023/03/08 05:40:04;;;;;;;14.40;6.20;;;-0.10;99.90;;;;;;4970730;28;20227;-81
2023/03/08 05:42:32;;;;;;;9.33;6.10;;;-0.10;99.90;;;;;;4983708;28;20277;-79
2023/03/08 05:44:59;;;;;;;10.33;8.23;;;0.00;99.90;;;;;;4964878;28;20319;-78
2023/03/08 05:47:31;;;;;;;10.80;8.00;;;-0.10;99.90;;;;;;4962360;28;20839;-78
2023/03/08 05:49:57;;;;;;;10.77;8.10;;;0.00;99.90;;;;;;4963874;28;20309;-79
2023/03/08 05:52:24;;;;;;;14.17;8.27;;;0.00;99.90;;;;;;4966263;28;20231;-80
2023/03/08 05:54:51;;;;;;;8.83;8.00;;;0.00;99.90;;;;;;4985216;28;20282;-79
2023/03/08 05:57:20;;;;;;;16.50;9.50;;;0.00;99.90;;;;;;4964264;28;20725;-79
2023/03/08 05:59:48;;;;;;;10.57;9.47;;;0.10;99.90;;;;;;4982590;28;20214;-80
2023/03/08 06:02:19;;;;;;;12.57;9.90;;;0.00;99.90;;;;;;4968380;28;20299;-80
2023/03/08 06:04:53;;;;;;;14.20;10.30;;;0.00;99.90;;;;;;4985279;28;20239;-79
2023/03/08 06:07:23;;;;;;;13.57;9.53;;;0.10;99.90;;;;;;4981978;28;20443;-78
2023/03/08 06:10:05;;;;;;;14.37;9.93;;;0.10;99.90;;;;;;4978340;28;20227;-78
2023/03/08 06:12:32;;;;;;;14.93;10.07;;;0.10;99.90;;;;;;4959314;28;20215;-78
2023/03/08 06:15:02;;;;;;;14.67;10.07;;;0.10;99.90;;;;;;4977528;28;20879;-79
2023/03/08 06:17:33;;;;;;;13.97;8.93;;;0.10;99.90;;;;;;4973158;28;20927;-77
2023/03/08 06:20:02;;;;;;;14.97;9.60;;;0.10;99.90;;;;;;4974970;28;20227;-77
2023/03/08 06:22:31;;;;;;;14.70;9.90;;;0.10;99.90;;;;;;4955085;28;20472;-77
2023/03/08 06:25:00;;;;;;;13.77;9.83;;;0.10;99.90;;;;;;4975649;28;20227;-76
2023/03/08 06:27:33;;;;;;;13.60;9.17;;;0.10;99.90;;;;;;4958822;28;20318;-77
2023/03/08 06:30:04;;;;;;;14.67;10.27;;;0.10;99.90;;;;;;4976146;28;20226;-75
2023/03/08 06:32:34;;;;;;;12.57;9.57;;;0.00;99.90;;;;;;4975976;28;20223;-78
2023/03/08 06:35:02;;;;;;;15.07;10.17;;;0.00;99.90;;;;;;4979747;28;20726;-76
2023/03/08 06:37:33;;;;;;;13.80;10.03;;;0.00;99.90;;;;;;4978201;28;20297;-76
2023/03/08 06:40:02;;;;;;;14.90;10.70;;;0.00;99.90;;;;;;4974141;28;20229;-77
2023/03/08 06:42:30;;;;;;;17.33;10.57;;;0.00;99.90;;;;;;4962704;28;20260;-77
2023/03/08 06:44:57;;;;;;;17.27;11.13;;;0.10;99.90;;;;;;4974523;28;20573;-76
2023/03/08 06:47:24;;;;;;;15.87;11.67;;;0.10;99.90;;;;;;4974652;28;20226;-77
2023/03/08 06:49:52;;;;;;;17.33;11.13;;;0.10;99.90;;;;;;4976451;28;20253;-77
2023/03/08 06:52:20;;;;;;;16.13;11.43;;;0.10;99.90;;;;;;4958709;28;21064;-75
2023/03/08 06:54:47;;;;;;;23.00;12.50;;;0.10;99.90;;;;;;4973820;28;20216;-77
2023/03/08 06:57:14;;;;;;;18.00;12.03;;;0.20;99.90;;;;;;4958462;28;20225;-76
2023/03/08 06:59:41;;;;;;;17.37;12.60;;;0.20;99.90;;;;;;4971725;28;20235;-75
2023/03/08 07:02:08;;;;;;;18.93;12.63;;;0.20;99.90;;;;;;4940755;28;20231;-74
2023/03/08 07:04:35;;;;;;;18.70;12.87;;;0.20;99.90;;;;;;4956179;28;20920;-77
2023/03/08 07:07:02;;;;;;;19.63;12.83;;;0.20;99.90;;;;;;4962362;28;20226;-76
2023/03/08 07:09:30;;;;;;;17.70;13.07;;;0.20;99.90;;;;;;4963396;28;20225;-76
2023/03/08 07:11:56;;;;;;;23.07;14.77;;;0.30;99.90;;;;;;4963949;28;20227;-76
2023/03/08 07:14:23;;;;;;;20.53;13.97;;;0.30;99.90;;;;;;4956015;28;20714;-75
2023/03/08 07:16:50;;;;;;;19.90;13.63;;;0.30;99.90;;;;;;4962719;28;20268;-76
2023/03/08 07:19:16;;;;;;;21.57;13.70;;;0.40;99.90;;;;;;4962906;28;20599;-76
2023/03/08 07:21:43;;;;;;;20.50;14.10;;;0.30;99.90;;;;;;4963713;28;20764;-76
2023/03/08 07:24:10;;;;;;;20.77;13.40;;;0.40;99.90;;;;;;4957365;28;20236;-76
2023/03/08 07:26:38;;;;;;;20.30;10.83;;;0.40;99.90;;;;;;4962501;28;20235;-76
2023/03/08 07:29:05;;;;;;;16.63;9.53;;;0.40;99.90;;;;;;4958908;28;20573;-76
2023/03/08 07:31:34;;;;;;;14.73;9.90;;;0.40;99.90;;;;;;4958456;28;20226;-75
2023/03/08 07:34:01;;;;;;;14.07;8.63;;;0.50;99.90;;;;;;4958443;28;20229;-74
2023/03/08 07:36:28;;;;;;;15.17;9.50;;;0.50;99.90;;;;;;4973383;28;20223;-76
2023/03/08 07:38:55;;;;;;;17.93;10.57;;;0.50;99.90;;;;;;4963810;28;20823;-76
2023/03/08 07:41:22;;;;;;;15.20;10.00;;;0.50;99.90;;;;;;4976588;28;20229;-76
2023/03/08 07:43:49;;;;;;;19.37;11.30;;;0.50;99.90;;;;;;4960487;28;20711;-76
2023/03/08 07:46:20;;;;;;;18.57;11.50;;;0.60;99.90;;;;;;4958232;28;20736;-74
2023/03/08 07:48:47;;;;;;;16.13;9.57;;;0.60;99.90;;;;;;4976608;28;20211;-76
2023/03/08 07:51:14;;;;;;;16.17;10.10;;;0.60;99.90;;;;;;4979747;28;20234;-75
2023/03/08 07:53:40;;;;;;;12.97;8.87;;;0.60;99.90;;;;;;4965174;28;20242;-76
2023/03/08 07:56:08;;;;;;;16.50;9.47;;;0.70;99.90;;;;;;4965685;28;20234;-76
2023/03/08 07:58:35;;;;;;;14.03;9.23;;;0.70;99.90;;;;;;4965615;28;20993;-76
2023/03/08 08:01:08;;;;;;;14.63;9.30;;;0.80;99.90;;;;;;4960950;28;20234;-76
2023/03/08 08:03:36;;;;;;;14.33;8.47;;;0.90;99.90;;;;;;4965484;28;20229;-76
2023/03/08 08:06:03;;;;;;;15.47;8.87;;;0.90;99.90;;;;;;4965580;28;20233;-76
2023/03/08 08:08:30;;;;;;;15.23;9.80;;;1.00;99.90;;;;;;4968612;28;20238;-78
2023/03/08 08:10:57;;;;;;;17.97;11.87;;;1.10;99.90;;;;;;4965840;28;20224;-76
2023/03/08 08:13:23;;;;;;;18.23;12.90;;;1.10;99.90;;;;;;4964703;28;21335;-76
2023/03/08 08:15:57;;;;;;;22.10;14.10;;;1.10;99.90;;;;;;4963505;28;20238;-75
2023/03/08 08:18:25;;;;;;;18.90;12.80;;;1.10;99.90;;;;;;4965676;28;20260;-76
2023/03/08 08:20:59;;;;;;;21.30;13.63;;;1.10;99.90;;;;;;4965711;28;20218;-76
2023/03/08 08:23:26;;;;;;;23.10;14.50;;;1.10;99.90;;;;;;4965562;28;20717;-75
2023/03/08 08:25:53;;;;;;;23.93;15.13;;;1.10;99.90;;;;;;4965004;28;20233;-76
2023/03/08 08:28:20;;;;;;;23.97;14.67;;;1.10;99.90;;;;;;4962285;28;20660;-76
2023/03/08 08:30:56;;;;;;;25.03;15.43;;;1.10;99.90;;;;;;4963933;28;20227;-76
2023/03/08 08:33:22;;;;;;;22.50;15.17;;;1.10;99.90;;;;;;4965186;28;20317;-79
2023/03/08 08:35:50;;;;;;;26.37;16.07;;;1.10;99.90;;;;;;4964630;28;20231;-80
2023/03/08 08:38:17;;;;;;;21.53;14.17;;;1.10;99.90;;;;;;4962145;28;20224;-80
2023/03/08 08:40:44;;;;;;;23.77;14.80;;;1.20;99.90;;;;;;4963769;28;20232;-79
2023/03/08 08:43:10;;;;;;;23.13;14.93;;;1.20;99.90;;;;;;4963679;28;20232;-79
2023/03/08 08:45:41;;;;;;;25.07;14.80;;;1.20;99.90;;;;;;4963550;28;20223;-81
2023/03/08 08:48:08;;;;;;;25.87;14.63;;;1.30;99.90;;;;;;4963377;28;20313;-79
2023/03/08 08:50:35;;;;;;;22.33;13.77;;;1.30;99.90;;;;;;4964539;28;20245;-80
2023/03/08 08:53:03;;;;;;;25.60;14.20;;;1.40;99.90;;;;;;4978909;28;20758;-79
2023/03/08 08:55:30;;;;;;;18.93;12.50;;;1.40;99.90;;;;;;4962482;28;20242;-79
2023/03/08 08:57:57;;;;;;;19.23;13.07;;;1.50;99.90;;;;;;4966400;28;20729;-79
2023/03/08 09:00:24;;;;;;;25.70;13.93;;;1.50;99.90;;;;;;4963026;28;20234;-79
2023/03/08 09:02:50;;;;;;;19.73;13.20;;;1.50;99.90;;;;;;4961825;28;20229;-81
2023/03/08 09:05:17;;;;;;;21.50;12.63;;;1.60;99.90;;;;;;4963104;28;20238;-79
2023/03/08 09:07:44;;;;;;;20.03;12.60;;;1.60;99.90;;;;;;4964780;28;20222;-79
2023/03/08 09:10:12;;;;;;;15.77;10.17;;;1.70;99.90;;;;;;4963408;28;20307;-80
2023/03/08 09:12:40;;;;;;;16.53;10.50;;;1.60;99.90;;;;;;4964763;28;20709;-79
2023/03/08 09:15:09;;;;;;;18.03;10.37;;;1.70;99.90;;;;;;4962896;28;20234;-79
2023/03/08 09:17:35;;;;;;;14.67;9.83;;;1.70;99.90;;;;;;4962230;28;20230;-79
2023/03/08 09:20:04;;;;;;;14.90;9.40;;;1.70;99.90;;;;;;4964627;28;20574;-80
2023/03/08 09:22:31;;;;;;;11.50;8.47;;;1.70;99.90;;;;;;4961669;28;20252;-79
2023/03/08 09:24:57;;;;;;;12.13;8.20;;;1.60;99.90;;;;;;4962992;28;20233;-79
2023/03/08 09:27:25;;;;;;;14.77;8.63;;;1.60;99.90;;;;;;4962727;28;20725;-79
2023/03/08 09:29:52;;;;;;;12.67;9.17;;;1.60;99.90;;;;;;4960482;28;20211;-79
2023/03/08 09:32:19;;;;;;;14.60;9.53;;;1.60;99.90;;;;;;4962965;28;20595;-80
2023/03/08 09:34:45;;;;;;;13.20;7.80;;;1.60;99.90;;;;;;4963263;28;20668;-80
2023/03/08 09:37:12;;;;;;;10.87;7.67;;;1.60;99.90;;;;;;4978222;28;20241;-79
2023/03/08 09:39:39;;;;;;;13.33;8.40;;;1.60;99.90;;;;;;4964893;28;20696;-79
2023/03/08 09:42:17;;;;;;;12.80;8.00;;;1.60;99.90;;;;;;4976746;28;20290;-80
2023/03/08 09:44:59;;;;;;;13.00;7.83;;;1.60;99.90;;;;;;4962687;28;20228;-81
2023/03/08 09:47:33;;;;;;;13.33;6.50;;;1.60;99.90;;;;;;4962554;28;20224;-80
2023/03/08 09:50:08;;;;;;;10.97;7.60;;;1.60;99.90;;;;;;4962456;28;20235;-79
2023/03/08 09:52:38;;;;;;;11.93;7.10;;;1.60;99.90;;;;;;4962444;28;20226;-81
2023/03/08 09:55:10;;;;;;;10.70;6.50;;;1.60;99.90;;;;;;4963389;28;20227;-80
2023/03/08 09:57:44;;;;;;;10.50;6.67;;;1.60;99.90;;;;;;4962218;28;20226;-80
2023/03/08 10:00:20;;;;;;;11.60;7.67;;;1.50;99.90;;;;;;4976591;28;20224;-80
2023/03/08 10:02:55;;;;;;;14.27;7.50;;;1.60;99.90;;;;;;4979228;28;20234;-80
2023/03/08 10:05:24;;;;;;;10.23;7.60;;;1.60;99.90;;;;;;4962852;28;20236;-79
2023/03/08 10:08:00;;;;;;;12.70;8.87;;;1.70;99.90;;;;;;4964696;28;20225;-79
2023/03/08 10:10:35;;;;;;;12.23;8.03;;;1.70;99.90;;;;;;4962946;28;20691;-80
2023/03/08 10:13:25;;;;;;;10.00;7.63;;;1.80;99.90;;;;;;4963916;28;20223;-79
2023/03/08 10:15:58;;;;;;;10.70;6.67;;;2.00;99.90;;;;;;4978254;28;20223;-83
2023/03/08 10:18:32;;;;;;;11.30;6.30;;;2.10;99.90;;;;;;4966208;28;20233;-79
2023/03/08 10:21:00;;;;;;;9.60;6.60;;;2.20;99.90;;;;;;4961486;28;20570;-79
2023/03/08 10:23:31;;;;;;;12.93;7.53;;;2.20;99.90;;;;;;4963588;28;20231;-81
2023/03/08 10:25:59;;;;;;;11.83;7.70;;;2.30;99.90;;;;;;4959752;28;20313;-79
2023/03/08 10:28:27;;;;;;;11.87;8.10;;;2.40;99.90;;;;;;4962684;28;20232;-81
2023/03/08 10:30:58;;;;;;;14.90;8.97;;;2.40;99.90;;;;;;4973858;28;20250;-79
2023/03/08 10:33:30;;;;;;;17.23;9.97;;;2.40;99.90;;;;;;4963069;28;20566;-80
2023/03/08 10:36:00;;;;;;;14.13;8.40;;;2.50;99.90;;;;;;4959854;28;20387;-81
2023/03/08 10:38:29;;;;;;;12.47;8.30;;;2.60;99.90;;;;;;4978470;28;20231;-80
2023/03/08 10:41:00;;;;;;;11.33;8.00;;;2.70;99.90;;;;;;4963381;28;20236;-79
2023/03/08 10:43:29;;;;;;;12.00;7.47;;;2.70;99.90;;;;;;4960488;28;20231;-80
2023/03/08 10:46:05;;;;;;;9.77;6.97;;;2.80;99.90;;;;;;4962515;28;20215;-79
2023/03/08 10:48:32;;;;;;;10.60;6.57;;;2.80;99.90;;;;;;4975464;28;20250;-79
2023/03/08 10:51:01;;;;;;;8.67;6.60;;;2.90;99.90;;;;;;4978532;28;20215;-80
2023/03/08 10:53:29;;;;;;;11.17;6.47;;;2.90;99.90;;;;;;4962931;28;20252;-80
2023/03/08 10:55:57;;;;;;;9.63;6.60;;;2.90;99.90;;;;;;4977811;28;20315;-80
2023/03/08 10:58:30;;;;;;;8.57;6.47;;;2.80;99.90;;;;;;4960292;28;20239;-82
2023/03/08 11:00:59;;;;;;;10.83;7.03;;;2.80;99.90;;;;;;4960189;28;20224;-79
2023/03/08 11:03:28;;;;;;;12.67;8.80;;;2.90;99.90;;;;;;4974081;28;20327;-80
2023/03/08 11:05:57;;;;;;;13.70;8.67;;;2.80;99.90;;;;;;4962852;28;20226;-80
2023/03/08 11:08:27;;;;;;;10.47;7.10;;;2.90;99.90;;;;;;4962524;28;20231;-81
2023/03/08 11:11:08;;;;;;;9.43;6.30;;;2.90;99.90;;;;;;4974741;28;20218;-81
2023/03/08 11:13:37;;;;;;;10.97;7.07;;;3.00;99.90;;;;;;4974684;28;20679;-80
2023/03/08 11:16:35;;;;;;;10.17;6.77;;;3.00;99.90;;;;;;4976190;28;20254;-79
2023/03/08 11:19:11;;;;;;;10.93;6.60;;;3.10;99.90;;;;;;4962118;28;20314;-80
2023/03/08 11:21:48;;;;;;;9.17;6.90;;;3.20;99.90;;;;;;4963885;28;20317;-79
2023/03/08 11:24:23;;;;;;;12.50;7.20;;;3.20;99.90;;;;;;4975501;28;20227;-80
2023/03/08 11:26:59;;;;;;;14.27;9.00;;;3.30;99.90;;;;;;4966502;28;20231;-80
2023/03/08 11:29:37;;;;;;;10.00;7.63;;;3.40;99.90;;;;;;4981491;28;20762;-80
2023/03/08 11:32:13;;;;;;;9.90;6.73;;;3.40;99.90;;;;;;4963472;28;20791;-80
2023/03/08 11:34:50;;;;;;;9.13;6.67;;;3.50;99.90;;;;;;4963547;28;20227;-79
2023/03/08 11:37:25;;;;;;;7.93;6.07;;;3.50;99.90;;;;;;4966432;28;20232;-81
2023/03/08 11:40:01;;;;;;;9.57;6.97;;;3.50;99.90;;;;;;4980977;28;20242;-80
2023/03/08 11:42:39;;;;;;;11.37;8.07;;;3.60;99.90;;;;;;4979901;28;20229;-79
2023/03/08 11:45:16;;;;;;;14.20;9.57;;;3.60;99.90;;;;;;4965389;28;20244;-80
2023/03/08 11:48:37;;;;;;;12.87;11.47;;;3.70;99.90;;;;;;4963952;28;20220;-80
2023/03/08 11:51:13;;;;;;;16.13;12.87;;;3.90;99.90;;;;;;4942456;28;20217;-81
2023/03/08 11:53:53;;;;;;;11.67;10.30;;;4.10;99.90;;;;;;4945082;28;20225;-81
2023/03/08 11:56:34;;;;;;;12.70;11.33;;;4.10;99.90;;;;;;4960633;28;20243;-80
2023/03/08 11:59:05;;;;;;;12.70;11.20;;;4.20;99.90;;;;;;4979943;28;20221;-80
2023/03/08 12:01:39;;;;;;;16.17;11.33;;;4.30;99.90;;;;;;4962110;28;20239;-81
2023/03/08 12:04:13;;;;;;;12.27;10.67;;;4.30;99.90;;;;;;4967269;28;20614;-80
2023/03/08 12:06:42;;;;;;;15.20;12.30;;;4.40;99.90;;;;;;4967669;28;20232;-81
2023/03/08 12:09:20;;;;;;;14.07;11.10;;;4.40;99.90;;;;;;4965889;28;20228;-80
2023/03/08 12:11:53;;;;;;;12.37;10.30;;;4.50;99.90;;;;;;4966931;28;20307;-80
2023/03/08 12:14:25;;;;;;;14.37;11.47;;;4.50;99.90;;;;;;4966060;28;20372;-79
2023/03/08 12:16:59;;;;;;;14.07;10.13;;;4.60;99.90;;;;;;4963955;28;20287;-80
2023/03/08 12:19:32;;;;;;;13.60;10.87;;;4.60;99.90;;;;;;4965055;28;20225;-80
2023/03/08 12:22:11;;;;;;;10.73;9.07;;;4.70;99.90;;;;;;4964629;28;20224;-80
2023/03/08 12:24:47;;;;;;;12.00;10.33;;;4.60;99.90;;;;;;4981267;28;20311;-81
2023/03/08 12:27:20;;;;;;;13.83;10.33;;;4.60;99.90;;;;;;4967692;28;20236;-80
2023/03/08 12:29:54;;;;;;;11.93;9.70;;;4.60;99.90;;;;;;4966656;28;20515;-80
2023/03/08 12:32:21;;;;;;;12.80;9.80;;;4.70;99.90;;;;;;4981663;28;20228;-80
2023/03/08 12:34:48;;;;;;;11.10;9.50;;;4.70;99.90;;;;;;4966865;28;20701;-80
2023/03/08 12:37:22;;;;;;;14.30;10.47;;;4.70;99.90;;;;;;4967969;28;20475;-80
2023/03/08 12:39:58;;;;;;;11.40;10.20;;;4.70;99.90;;;;;;4969318;28;20767;-80
2023/03/08 12:42:31;;;;;;;16.23;13.00;;;4.80;99.90;;;;;;4968340;28;20704;-80
2023/03/08 12:45:29;;;;;;;11.93;10.27;;;4.80;99.90;;;;;;4966090;28;20249;-80
2023/03/08 12:48:20;;;;;;;11.33;8.67;;;5.00;99.90;;;;;;4963626;28;20224;-80
2023/03/08 12:50:59;;;;;;;12.17;9.07;;;5.00;99.90;;;;;;4967200;28;20229;-80
2023/03/08 12:53:33;;;;;;;9.77;8.63;;;5.10;99.90;;;;;;4983025;28;20696;-80
2023/03/08 12:56:03;;;;;;;9.47;8.37;;;5.10;99.90;;;;;;4965336;28;20233;-80
2023/03/08 12:58:31;;;;;;;9.97;8.50;;;5.10;99.90;;;;;;4967853;28;20792;-80